Main page
METAR-TAF:

METAR-TAF

Airports :

Tallinn Airport

Tallinn, Estonia

latitude: 59-23N, longitude: 024-35E, elevation: 44 m

Current weather observation

The report was made 13 minutes ago, at 16:50 UTC
Wind 12 kt from the South/Southwest
Temperature 8°C
Humidity 87%
Pressure 1014 hPa
Visibility 10 km or more
Scattered clouds at a height of 1600 ft
Overcast at a height of 2500 ft

METAR: EETN 251650Z 20012KT 9999 SCT016 OVC025 08/06 Q1014 NOSIG

Time: 20:03 (17:03 UTC)

Forecast

The report was made 5 hours and 33 minutes ago, at 11:30 UTC
Forecast valid from 25 at 12 UTC to 26 at 12 UTC
Wind 12 kt from the Southwest
Visibility 10 km or more
Broken clouds at a height of 2500 ft
Probability 40% :
Temporary
from 25 at 17 UTC to 25 at 24 UTC
Broken clouds at a height of 1500 ft
Temporary
from 26 at 00 UTC to 26 at 09 UTC
Broken clouds at a height of 800 ft
Scattered clouds at a height of 2000 ft, Cumulonimbus.

TAF: EETN 251130Z 2512/2612 22012KT 9999 BKN025 PROB40 TEMPO 2517/2524 BKN015 TEMPO 2600/2609 BKN008 SCT020CB

Weather observations and forecasts of more than 4000 airports (METAR and TAF reports).

The available stations are represented by yellow and red dots on the map.

Hover mouse over dot to see the name of the station.

Then click to see weather observations and forecasts.

To change the map : click on the green buttons with a black cross to zoom in, on the green button with a dash to zoom out, or on the green arrows for adjacent maps.


METAR-TAF: